AUA129 LOWW-ENGM
Flight info
| Callsign | AUA129 |
|---|---|
| Flight time | N/A |
| Altitude | 34000 |
| Route | LANUX6D/34 LANUX DCT VLM DCT HDO DCT POGAB DCT SONAL DCT GOLMI DCT KULUD DCT SABAK DCT LUNIP |
| Aircraft | A320/M-SDE3FGHIRWY/LB1 |
Departure
| Time | N/A |
|---|---|
| Airport | Vienna International Airport (LOWW) |
Arrival
| Time | 2026-05-01 13:07 |
|---|---|
| Airport | Oslo-Gardermoen International Airport (ENGM) |
| Time | Latitude | Longitude | Altitude | Speed | Heading |
|---|---|---|---|---|---|
| 2026-05-01 12:06 | 55.54457 | 12.58594 | 34392 ft | 448 kts | 351° |
| 2026-05-01 12:06 | 55.57532 | 12.57680 | 34406 ft | 449 kts | 351° |
| 2026-05-01 12:06 | 55.63692 | 12.55840 | 34410 ft | 448 kts | 351° |
| 2026-05-01 12:07 | 55.69846 | 12.54008 | 34405 ft | 448 kts | 351° |
| 2026-05-01 12:07 | 55.75997 | 12.52172 | 34405 ft | 448 kts | 351° |
| 2026-05-01 12:08 | 55.82131 | 12.50173 | 34405 ft | 448 kts | 348° |
| 2026-05-01 12:08 | 55.88230 | 12.47807 | 34394 ft | 449 kts | 347° |
| 2026-05-01 12:09 | 55.94331 | 12.45379 | 34387 ft | 450 kts | 347° |
| 2026-05-01 12:09 | 56.00459 | 12.43031 | 34392 ft | 450 kts | 348° |
| 2026-05-01 12:10 | 56.09660 | 12.39571 | 34390 ft | 451 kts | 348° |
| 2026-05-01 12:11 | 56.18857 | 12.36079 | 34390 ft | 450 kts | 347° |
| 2026-05-01 12:11 | 56.24992 | 12.33731 | 34398 ft | 451 kts | 347° |
| 2026-05-01 12:12 | 56.31141 | 12.31463 | 34403 ft | 451 kts | 348° |
| 2026-05-01 12:12 | 56.37312 | 12.29394 | 34398 ft | 451 kts | 349° |
| 2026-05-01 12:13 | 56.43480 | 12.27341 | 34392 ft | 451 kts | 348° |
| 2026-05-01 12:13 | 56.49642 | 12.25217 | 34389 ft | 451 kts | 348° |
| 2026-05-01 12:14 | 56.55762 | 12.23079 | 34389 ft | 451 kts | 348° |
| 2026-05-01 12:14 | 56.61927 | 12.20931 | 34382 ft | 451 kts | 348° |
| 2026-05-01 12:15 | 56.68095 | 12.18780 | 34377 ft | 451 kts | 348° |
| 2026-05-01 12:15 | 56.74266 | 12.16620 | 34373 ft | 452 kts | 348° |
| 2026-05-01 12:16 | 56.80442 | 12.14455 | 34385 ft | 452 kts | 348° |
| 2026-05-01 12:16 | 56.86615 | 12.12277 | 34385 ft | 452 kts | 348° |
| 2026-05-01 12:17 | 56.92786 | 12.10093 | 34381 ft | 451 kts | 348° |
| 2026-05-01 12:17 | 56.98953 | 12.07912 | 34373 ft | 451 kts | 348° |
| 2026-05-01 12:18 | 57.05118 | 12.05714 | 34368 ft | 451 kts | 347° |
| 2026-05-01 12:18 | 57.11284 | 12.03509 | 34373 ft | 451 kts | 347° |
| 2026-05-01 12:19 | 57.17453 | 12.01301 | 34372 ft | 452 kts | 347° |
| 2026-05-01 12:19 | 57.23625 | 11.99080 | 34372 ft | 452 kts | 347° |
| 2026-05-01 12:20 | 57.29797 | 11.96847 | 34373 ft | 452 kts | 347° |
| 2026-05-01 12:20 | 57.35977 | 11.94604 | 34379 ft | 453 kts | 347° |
| 2026-05-01 12:21 | 57.42168 | 11.92342 | 34379 ft | 453 kts | 346° |
| 2026-05-01 12:21 | 57.48354 | 11.90085 | 34378 ft | 453 kts | 346° |
| 2026-05-01 12:22 | 57.54542 | 11.87825 | 34377 ft | 453 kts | 347° |
| 2026-05-01 12:22 | 57.60726 | 11.85573 | 34366 ft | 453 kts | 347° |
| 2026-05-01 12:23 | 57.66866 | 11.83312 | 34391 ft | 453 kts | 346° |
| 2026-05-01 12:23 | 57.73007 | 11.81035 | 34380 ft | 440 kts | 346° |
| 2026-05-01 12:24 | 57.75985 | 11.79937 | 34376 ft | 424 kts | 346° |
| 2026-05-01 12:24 | 57.78817 | 11.78890 | 34372 ft | 417 kts | 346° |
| 2026-05-01 12:24 | 57.84505 | 11.76769 | 33740 ft | 422 kts | 346° |
| 2026-05-01 12:25 | 57.87423 | 11.75675 | 32508 ft | 434 kts | 346° |
| 2026-05-01 12:25 | 57.93491 | 11.73396 | 29930 ft | 455 kts | 346° |
| 2026-05-01 12:25 | 57.96617 | 11.72223 | 28560 ft | 461 kts | 346° |
| 2026-05-01 12:26 | 57.99776 | 11.71039 | 27280 ft | 461 kts | 346° |
| 2026-05-01 12:26 | 58.06042 | 11.68688 | 23610 ft | 461 kts | 346° |
| 2026-05-01 12:26 | 58.09190 | 11.67501 | 21769 ft | 459 kts | 345° |
| 2026-05-01 12:27 | 58.12299 | 11.66329 | 20237 ft | 452 kts | 345° |
| 2026-05-01 12:27 | 58.18372 | 11.64043 | 17352 ft | 438 kts | 345° |
| 2026-05-01 12:28 | 58.24272 | 11.62068 | 14700 ft | 423 kts | 346° |
| 2026-05-01 12:28 | 58.27152 | 11.61193 | 13385 ft | 415 kts | 346° |
| 2026-05-01 12:28 | 58.32726 | 11.59508 | 11584 ft | 392 kts | 346° |
| 2026-05-01 12:29 | 58.35354 | 11.58701 | 11489 ft | 374 kts | 346° |
| 2026-05-01 12:29 | 58.37923 | 11.57894 | 11405 ft | 375 kts | 345° |
| 2026-05-01 12:29 | 58.43085 | 11.56224 | 11247 ft | 375 kts | 345° |
| 2026-05-01 12:30 | 58.48226 | 11.54566 | 11086 ft | 374 kts | 345° |
| 2026-05-01 12:30 | 58.50790 | 11.53737 | 11009 ft | 374 kts | 345° |
| 2026-05-01 12:30 | 58.53351 | 11.52905 | 10932 ft | 373 kts | 345° |
| 2026-05-01 12:31 | 58.55871 | 11.52080 | 10857 ft | 372 kts | 345° |
| 2026-05-01 12:31 | 58.58420 | 11.51252 | 10774 ft | 371 kts | 345° |
| 2026-05-01 12:31 | 58.60968 | 11.50430 | 10692 ft | 371 kts | 345° |
| 2026-05-01 12:31 | 58.63514 | 11.49611 | 10609 ft | 371 kts | 346° |
| 2026-05-01 12:32 | 58.66059 | 11.48792 | 10530 ft | 370 kts | 346° |
| 2026-05-01 12:32 | 58.71136 | 11.47142 | 10369 ft | 370 kts | 345° |
| 2026-05-01 12:32 | 58.73641 | 11.46331 | 10279 ft | 357 kts | 345° |
| 2026-05-01 12:33 | 58.76034 | 11.45563 | 10149 ft | 341 kts | 345° |
| 2026-05-01 12:33 | 58.78323 | 11.44827 | 10015 ft | 326 kts | 345° |
| 2026-05-01 12:33 | 58.80514 | 11.44118 | 9881 ft | 313 kts | 345° |
| 2026-05-01 12:33 | 58.82619 | 11.43432 | 9759 ft | 301 kts | 344° |
| 2026-05-01 12:34 | 58.84650 | 11.42763 | 9612 ft | 292 kts | 344° |
| 2026-05-01 12:34 | 58.86641 | 11.42099 | 9481 ft | 290 kts | 344° |
| 2026-05-01 12:34 | 58.88623 | 11.41440 | 9337 ft | 289 kts | 344° |
| 2026-05-01 12:34 | 58.90596 | 11.40777 | 9289 ft | 287 kts | 344° |
| 2026-05-01 12:35 | 58.92571 | 11.40109 | 9288 ft | 288 kts | 344° |
| 2026-05-01 12:35 | 58.94545 | 11.39448 | 9294 ft | 288 kts | 344° |
| 2026-05-01 12:35 | 58.96519 | 11.38793 | 9286 ft | 288 kts | 344° |
| 2026-05-01 12:35 | 58.98494 | 11.38141 | 9299 ft | 288 kts | 344° |
| 2026-05-01 12:36 | 59.00467 | 11.37489 | 9290 ft | 288 kts | 344° |
| 2026-05-01 12:36 | 59.02441 | 11.36837 | 9280 ft | 287 kts | 344° |
| 2026-05-01 12:36 | 59.04409 | 11.36182 | 9278 ft | 287 kts | 344° |
| 2026-05-01 12:36 | 59.06382 | 11.35519 | 9282 ft | 288 kts | 343° |
| 2026-05-01 12:37 | 59.08358 | 11.34858 | 9282 ft | 288 kts | 344° |
| 2026-05-01 12:37 | 59.10337 | 11.34197 | 9280 ft | 289 kts | 345° |
| 2026-05-01 12:37 | 59.12317 | 11.33535 | 9281 ft | 288 kts | 344° |
| 2026-05-01 12:37 | 59.14291 | 11.32876 | 9273 ft | 287 kts | 344° |
| 2026-05-01 12:38 | 59.16280 | 11.32396 | 9279 ft | 290 kts | 351° |
| 2026-05-01 12:38 | 59.18314 | 11.32422 | 9275 ft | 294 kts | 358° |
| 2026-05-01 12:38 | 59.20355 | 11.32974 | 9275 ft | 298 kts | 6° |
| 2026-05-01 12:38 | 59.22370 | 11.34044 | 9268 ft | 302 kts | 13° |
| 2026-05-01 12:39 | 59.24370 | 11.35306 | 9269 ft | 302 kts | 12° |
| 2026-05-01 12:39 | 59.26369 | 11.36564 | 9266 ft | 302 kts | 12° |
| 2026-05-01 12:39 | 59.28373 | 11.37826 | 9266 ft | 302 kts | 12° |
| 2026-05-01 12:39 | 59.30375 | 11.39088 | 9266 ft | 302 kts | 12° |
| 2026-05-01 12:40 | 59.32377 | 11.40350 | 9270 ft | 302 kts | 12° |
| 2026-05-01 12:40 | 59.34383 | 11.41613 | 9258 ft | 303 kts | 12° |
| 2026-05-01 12:40 | 59.36389 | 11.42880 | 9252 ft | 303 kts | 12° |
| 2026-05-01 12:40 | 59.38395 | 11.44148 | 9252 ft | 303 kts | 12° |
| 2026-05-01 12:41 | 59.40395 | 11.45414 | 9258 ft | 302 kts | 12° |
| 2026-05-01 12:41 | 59.42397 | 11.46684 | 9252 ft | 302 kts | 12° |
| 2026-05-01 12:41 | 59.44396 | 11.47953 | 9242 ft | 302 kts | 12° |
| 2026-05-01 12:41 | 59.46397 | 11.49216 | 9244 ft | 302 kts | 12° |
| 2026-05-01 12:42 | 59.48398 | 11.50473 | 9241 ft | 302 kts | 12° |
| 2026-05-01 12:42 | 59.50371 | 11.51716 | 9242 ft | 302 kts | 12° |
| 2026-05-01 12:42 | 59.52374 | 11.52981 | 9243 ft | 302 kts | 12° |
| 2026-05-01 12:42 | 59.54378 | 11.54245 | 9240 ft | 302 kts | 12° |
| 2026-05-01 12:43 | 59.56376 | 11.55509 | 9234 ft | 302 kts | 12° |
| 2026-05-01 12:43 | 59.58376 | 11.56778 | 9231 ft | 302 kts | 12° |
| 2026-05-01 12:43 | 59.60375 | 11.58052 | 9232 ft | 302 kts | 12° |
| 2026-05-01 12:43 | 59.62379 | 11.59333 | 9233 ft | 303 kts | 12° |
| 2026-05-01 12:44 | 59.64386 | 11.60618 | 9234 ft | 303 kts | 12° |
| 2026-05-01 12:44 | 59.66389 | 11.61900 | 9250 ft | 302 kts | 12° |
| 2026-05-01 12:44 | 59.70384 | 11.64459 | 9228 ft | 301 kts | 12° |
| 2026-05-01 12:45 | 59.74368 | 11.67008 | 9227 ft | 301 kts | 12° |
| 2026-05-01 12:45 | 59.76361 | 11.68285 | 9228 ft | 301 kts | 12° |
| 2026-05-01 12:45 | 59.78355 | 11.69571 | 9215 ft | 301 kts | 12° |
| 2026-05-01 12:46 | 59.79675 | 11.70425 | 9217 ft | 301 kts | 12° |
| 2026-05-01 12:46 | 59.81666 | 11.71711 | 9216 ft | 301 kts | 12° |
| 2026-05-01 12:46 | 59.83662 | 11.72998 | 9217 ft | 302 kts | 12° |
| 2026-05-01 12:46 | 59.85658 | 11.74285 | 9217 ft | 302 kts | 12° |
| 2026-05-01 12:47 | 59.87654 | 11.75573 | 9219 ft | 301 kts | 12° |
| 2026-05-01 12:47 | 59.89645 | 11.76861 | 9209 ft | 301 kts | 12° |
| 2026-05-01 12:47 | 59.91635 | 11.78153 | 9209 ft | 301 kts | 12° |
| 2026-05-01 12:47 | 59.93623 | 11.79452 | 9227 ft | 301 kts | 12° |
| 2026-05-01 12:48 | 59.95619 | 11.80758 | 9212 ft | 302 kts | 12° |
| 2026-05-01 12:48 | 59.97614 | 11.82066 | 9209 ft | 302 kts | 12° |
| 2026-05-01 12:48 | 59.99612 | 11.83377 | 9200 ft | 302 kts | 12° |
| 2026-05-01 12:48 | 60.01611 | 11.84683 | 9201 ft | 303 kts | 12° |
| 2026-05-01 12:49 | 60.03612 | 11.85990 | 9199 ft | 303 kts | 12° |
| 2026-05-01 12:49 | 60.05612 | 11.87297 | 9201 ft | 302 kts | 12° |
| 2026-05-01 12:49 | 60.07608 | 11.88603 | 9200 ft | 302 kts | 12° |
| 2026-05-01 12:49 | 60.09606 | 11.89918 | 9201 ft | 302 kts | 12° |
| 2026-05-01 12:50 | 60.11620 | 11.91061 | 9198 ft | 298 kts | 4° |
| 2026-05-01 12:50 | 60.13664 | 11.91686 | 9198 ft | 297 kts | 2° |
| 2026-05-01 12:50 | 60.15705 | 11.92298 | 9195 ft | 297 kts | 2° |
| 2026-05-01 12:50 | 60.17747 | 11.92910 | 9196 ft | 297 kts | 2° |
| 2026-05-01 12:51 | 60.19790 | 11.93524 | 9194 ft | 297 kts | 2° |
| 2026-05-01 12:51 | 60.21837 | 11.94144 | 9200 ft | 297 kts | 2° |
| 2026-05-01 12:51 | 60.25734 | 11.95352 | 9184 ft | 269 kts | 4° |
| 2026-05-01 12:52 | 60.27525 | 11.96447 | 9182 ft | 270 kts | 14° |
| 2026-05-01 12:52 | 60.31013 | 11.99124 | 8781 ft | 266 kts | 15° |
| 2026-05-01 12:52 | 60.32746 | 12.00459 | 8407 ft | 266 kts | 15° |
| 2026-05-01 12:53 | 60.36293 | 12.00792 | 7164 ft | 263 kts | 331° |
| 2026-05-01 12:53 | 60.37791 | 11.98732 | 6492 ft | 260 kts | 307° |
| 2026-05-01 12:53 | 60.38689 | 11.95749 | 6352 ft | 240 kts | 287° |
| 2026-05-01 12:54 | 60.39008 | 11.92554 | 6221 ft | 226 kts | 276° |
| 2026-05-01 12:54 | 60.39388 | 11.86446 | 5961 ft | 217 kts | 276° |
| 2026-05-01 12:54 | 60.39574 | 11.83417 | 5834 ft | 217 kts | 275° |
| 2026-05-01 12:55 | 60.39940 | 11.77366 | 5583 ft | 217 kts | 275° |
| 2026-05-01 12:55 | 60.40122 | 11.74354 | 5449 ft | 216 kts | 275° |
| 2026-05-01 12:55 | 60.40306 | 11.71327 | 5328 ft | 217 kts | 276° |
| 2026-05-01 12:56 | 60.40489 | 11.68298 | 5204 ft | 217 kts | 275° |
| 2026-05-01 12:56 | 60.40671 | 11.65272 | 5075 ft | 217 kts | 275° |
| 2026-05-01 12:56 | 60.40851 | 11.62241 | 4947 ft | 217 kts | 275° |
| 2026-05-01 12:56 | 60.41029 | 11.59224 | 4954 ft | 216 kts | 275° |
| 2026-05-01 12:57 | 60.41207 | 11.56188 | 4962 ft | 217 kts | 276° |
| 2026-05-01 12:57 | 60.41556 | 11.50127 | 4971 ft | 218 kts | 274° |
| 2026-05-01 12:57 | 60.41736 | 11.47037 | 4975 ft | 223 kts | 274° |
| 2026-05-01 12:58 | 60.41914 | 11.43990 | 4968 ft | 213 kts | 274° |
| 2026-05-01 12:58 | 60.42078 | 11.40990 | 4971 ft | 217 kts | 271° |
| 2026-05-01 12:58 | 60.41962 | 11.37927 | 4896 ft | 219 kts | 260° |
| 2026-05-01 12:59 | 60.41499 | 11.31881 | 4630 ft | 210 kts | 259° |
| 2026-05-01 12:59 | 60.41277 | 11.28973 | 4501 ft | 210 kts | 259° |
| 2026-05-01 12:59 | 60.40830 | 11.23181 | 4252 ft | 209 kts | 255° |
| 2026-05-01 13:00 | 60.38925 | 11.19217 | 3997 ft | 207 kts | 194° |
| 2026-05-01 13:00 | 60.37485 | 11.18792 | 3848 ft | 208 kts | 196° |
| 2026-05-01 13:01 | 60.34811 | 11.16878 | 3408 ft | 205 kts | 200° |
| 2026-05-01 13:01 | 60.33441 | 11.16041 | 3133 ft | 206 kts | 199° |
| 2026-05-01 13:01 | 60.30824 | 11.14518 | 2627 ft | 188 kts | 199° |
| 2026-05-01 13:02 | 60.29607 | 11.13809 | 2370 ft | 173 kts | 198° |
| 2026-05-01 13:07 | 60.19383 | 11.08906 | 681 ft | 0 kts | 197° |
| 2026-05-01 13:08 | 60.19383 | 11.08902 | 679 ft | 0 kts | 196° |